sensor_id;sensor_type;location;lat;lon;timestamp;P1;durP1;ratioP1;P2;durP2;ratioP2
37091;SDS011;23005;51.998;4.502;2023-03-31T00:00:21;28.83;;;5.25;;
37091;SDS011;23005;51.998;4.502;2023-03-31T00:01:41;37.45;;;5.88;;
37091;SDS011;23005;51.998;4.502;2023-03-31T00:03:02;35.42;;;5.03;;
37091;SDS011;23005;51.998;4.502;2023-03-31T00:04:22;33.63;;;5.82;;
37091;SDS011;23005;51.998;4.502;2023-03-31T00:05:46;26.85;;;5.25;;
37091;SDS011;23005;51.998;4.502;2023-03-31T00:07:08;29.37;;;5.40;;
37091;SDS011;23005;51.998;4.502;2023-03-31T00:08:29;32.97;;;5.47;;
37091;SDS011;23005;51.998;4.502;2023-03-31T00:09:50;26.40;;;5.38;;
37091;SDS011;23005;51.998;4.502;2023-03-31T00:11:11;28.50;;;4.82;;
37091;SDS011;23005;51.998;4.502;2023-03-31T00:12:32;33.95;;;5.45;;
37091;SDS011;23005;51.998;4.502;2023-03-31T00:13:52;32.88;;;5.40;;
37091;SDS011;23005;51.998;4.502;2023-03-31T00:15:15;30.83;;;4.90;;
37091;SDS011;23005;51.998;4.502;2023-03-31T00:16:37;36.85;;;6.07;;
37091;SDS011;23005;51.998;4.502;2023-03-31T00:17:58;35.63;;;5.57;;
37091;SDS011;23005;51.998;4.502;2023-03-31T00:19:18;31.92;;;5.82;;
37091;SDS011;23005;51.998;4.502;2023-03-31T00:20:39;32.70;;;5.53;;
37091;SDS011;23005;51.998;4.502;2023-03-31T00:21:59;38.83;;;6.07;;
37091;SDS011;23005;51.998;4.502;2023-03-31T00:23:21;27.65;;;5.80;;
37091;SDS011;23005;51.998;4.502;2023-03-31T00:24:44;33.05;;;5.57;;
37091;SDS011;23005;51.998;4.502;2023-03-31T00:26:04;38.13;;;6.18;;
37091;SDS011;23005;51.998;4.502;2023-03-31T00:27:25;34.07;;;5.73;;
37091;SDS011;23005;51.998;4.502;2023-03-31T00:28:45;28.27;;;6.13;;
37091;SDS011;23005;51.998;4.502;2023-03-31T00:30:06;34.08;;;5.60;;
37091;SDS011;23005;51.998;4.502;2023-03-31T00:31:28;35.45;;;4.85;;
37091;SDS011;23005;51.998;4.502;2023-03-31T00:34:09;26.35;;;4.90;;
37091;SDS011;23005;51.998;4.502;2023-03-31T00:35:30;28.45;;;5.55;;
37091;SDS011;23005;51.998;4.502;2023-03-31T00:36:50;24.40;;;4.32;;
37091;SDS011;23005;51.998;4.502;2023-03-31T00:38:11;36.30;;;5.07;;
37091;SDS011;23005;51.998;4.502;2023-03-31T00:39:33;36.97;;;5.57;;
37091;SDS011;23005;51.998;4.502;2023-03-31T00:40:54;26.42;;;4.25;;
37091;SDS011;23005;51.998;4.502;2023-03-31T00:42:14;27.35;;;5.22;;
37091;SDS011;23005;51.998;4.502;2023-03-31T00:43:36;25.63;;;5.10;;
37091;SDS011;23005;51.998;4.502;2023-03-31T00:45:20;27.00;;;5.22;;
37091;SDS011;23005;51.998;4.502;2023-03-31T00:46:48;33.95;;;5.68;;
37091;SDS011;23005;51.998;4.502;2023-03-31T00:48:12;26.80;;;5.47;;
37091;SDS011;23005;51.998;4.502;2023-03-31T00:49:35;23.40;;;4.68;;
37091;SDS011;23005;51.998;4.502;2023-03-31T00:50:57;25.05;;;4.85;;
37091;SDS011;23005;51.998;4.502;2023-03-31T00:52:19;31.55;;;4.90;;
37091;SDS011;23005;51.998;4.502;2023-03-31T00:53:42;25.77;;;4.20;;
37091;SDS011;23005;51.998;4.502;2023-03-31T00:55:06;30.40;;;5.28;;
37091;SDS011;23005;51.998;4.502;2023-03-31T00:56:29;29.40;;;5.20;;
37091;SDS011;23005;51.998;4.502;2023-03-31T00:57:52;23.55;;;4.70;;
37091;SDS011;23005;51.998;4.502;2023-03-31T00:59:13;24.77;;;4.83;;
37091;SDS011;23005;51.998;4.502;2023-03-31T01:00:33;28.63;;;5.10;;
37091;SDS011;23005;51.998;4.502;2023-03-31T01:01:54;27.55;;;4.90;;
37091;SDS011;23005;51.998;4.502;2023-03-31T01:03:15;23.60;;;4.20;;
37091;SDS011;23005;51.998;4.502;2023-03-31T01:04:37;28.40;;;5.32;;
37091;SDS011;23005;51.998;4.502;2023-03-31T01:05:59;29.17;;;4.30;;
37091;SDS011;23005;51.998;4.502;2023-03-31T01:07:21;20.52;;;4.72;;
37091;SDS011;23005;51.998;4.502;2023-03-31T01:08:44;27.75;;;5.22;;
37091;SDS011;23005;51.998;4.502;2023-03-31T01:10:08;24.85;;;4.60;;
37091;SDS011;23005;51.998;4.502;2023-03-31T01:11:29;27.73;;;4.72;;
37091;SDS011;23005;51.998;4.502;2023-03-31T01:12:50;21.33;;;4.90;;
37091;SDS011;23005;51.998;4.502;2023-03-31T01:14:13;28.75;;;5.13;;
37091;SDS011;23005;51.998;4.502;2023-03-31T01:15:34;24.35;;;4.78;;
37091;SDS011;23005;51.998;4.502;2023-03-31T01:16:54;32.92;;;5.82;;
37091;SDS011;23005;51.998;4.502;2023-03-31T01:18:15;34.65;;;5.70;;
37091;SDS011;23005;51.998;4.502;2023-03-31T01:19:41;35.58;;;5.20;;
37091;SDS011;23005;51.998;4.502;2023-03-31T01:23:29;30.33;;;5.25;;
37091;SDS011;23005;51.998;4.502;2023-03-31T01:25:24;22.38;;;4.78;;
37091;SDS011;23005;51.998;4.502;2023-03-31T01:29:07;26.83;;;5.05;;
37091;SDS011;23005;51.998;4.502;2023-03-31T01:32:32;25.75;;;4.88;;
37091;SDS011;23005;51.998;4.502;2023-03-31T01:34:15;26.00;;;5.00;;
37091;SDS011;23005;51.998;4.502;2023-03-31T01:35:57;31.05;;;5.13;;
37091;SDS011;23005;51.998;4.502;2023-03-31T01:39:46;37.72;;;5.57;;
37091;SDS011;23005;51.998;4.502;2023-03-31T01:41:22;26.48;;;4.60;;
37091;SDS011;23005;51.998;4.502;2023-03-31T01:42:55;26.95;;;5.57;;
37091;SDS011;23005;51.998;4.502;2023-03-31T01:44:19;29.27;;;5.00;;
37091;SDS011;23005;51.998;4.502;2023-03-31T01:45:49;27.40;;;5.20;;
37091;SDS011;23005;51.998;4.502;2023-03-31T01:47:14;32.25;;;5.53;;
37091;SDS011;23005;51.998;4.502;2023-03-31T01:48:39;34.78;;;5.82;;
37091;SDS011;23005;51.998;4.502;2023-03-31T01:50:03;34.25;;;6.82;;
37091;SDS011;23005;51.998;4.502;2023-03-31T01:51:28;33.97;;;5.43;;
37091;SDS011;23005;51.998;4.502;2023-03-31T01:52:55;32.13;;;5.95;;
37091;SDS011;23005;51.998;4.502;2023-03-31T01:54:18;28.77;;;5.80;;
37091;SDS011;23005;51.998;4.502;2023-03-31T01:55:44;44.22;;;6.95;;
37091;SDS011;23005;51.998;4.502;2023-03-31T01:57:08;43.88;;;6.57;;
37091;SDS011;23005;51.998;4.502;2023-03-31T01:58:33;37.63;;;6.07;;
37091;SDS011;23005;51.998;4.502;2023-03-31T01:59:56;34.15;;;5.88;;
37091;SDS011;23005;51.998;4.502;2023-03-31T02:01:21;31.17;;;6.53;;
37091;SDS011;23005;51.998;4.502;2023-03-31T02:02:46;37.70;;;7.10;;
37091;SDS011;23005;51.998;4.502;2023-03-31T02:04:10;44.05;;;7.50;;
37091;SDS011;23005;51.998;4.502;2023-03-31T02:05:34;32.95;;;7.18;;
37091;SDS011;23005;51.998;4.502;2023-03-31T02:06:59;42.83;;;8.35;;
37091;SDS011;23005;51.998;4.502;2023-03-31T02:08:23;40.88;;;7.78;;
37091;SDS011;23005;51.998;4.502;2023-03-31T02:09:47;40.95;;;6.85;;
37091;SDS011;23005;51.998;4.502;2023-03-31T02:11:10;39.25;;;7.55;;
37091;SDS011;23005;51.998;4.502;2023-03-31T02:12:31;34.55;;;6.47;;
37091;SDS011;23005;51.998;4.502;2023-03-31T02:13:52;30.60;;;6.63;;
37091;SDS011;23005;51.998;4.502;2023-03-31T02:15:17;43.35;;;7.43;;
37091;SDS011;23005;51.998;4.502;2023-03-31T02:16:41;40.20;;;7.15;;
37091;SDS011;23005;51.998;4.502;2023-03-31T02:18:02;35.08;;;6.53;;
37091;SDS011;23005;51.998;4.502;2023-03-31T02:19:26;40.42;;;7.35;;
37091;SDS011;23005;51.998;4.502;2023-03-31T02:20:49;41.58;;;6.80;;
37091;SDS011;23005;51.998;4.502;2023-03-31T02:22:10;30.20;;;5.43;;
37091;SDS011;23005;51.998;4.502;2023-03-31T02:23:32;27.35;;;5.72;;
37091;SDS011;23005;51.998;4.502;2023-03-31T02:24:54;39.50;;;6.50;;
37091;SDS011;23005;51.998;4.502;2023-03-31T02:26:18;32.53;;;6.70;;
37091;SDS011;23005;51.998;4.502;2023-03-31T02:27:41;32.63;;;6.13;;
37091;SDS011;23005;51.998;4.502;2023-03-31T02:29:02;35.30;;;6.75;;
37091;SDS011;23005;51.998;4.502;2023-03-31T02:30:24;27.95;;;6.05;;
37091;SDS011;23005;51.998;4.502;2023-03-31T02:31:51;28.73;;;7.43;;
37091;SDS011;23005;51.998;4.502;2023-03-31T02:33:17;31.70;;;7.20;;
37091;SDS011;23005;51.998;4.502;2023-03-31T02:34:37;33.42;;;6.65;;
37091;SDS011;23005;51.998;4.502;2023-03-31T02:35:59;32.22;;;7.72;;
37091;SDS011;23005;51.998;4.502;2023-03-31T02:37:20;30.73;;;7.05;;
37091;SDS011;23005;51.998;4.502;2023-03-31T02:38:42;27.52;;;7.57;;
37091;SDS011;23005;51.998;4.502;2023-03-31T02:40:04;31.23;;;7.95;;
37091;SDS011;23005;51.998;4.502;2023-03-31T02:41:28;33.30;;;8.02;;
37091;SDS011;23005;51.998;4.502;2023-03-31T02:42:48;31.67;;;7.07;;
37091;SDS011;23005;51.998;4.502;2023-03-31T02:44:09;25.58;;;6.40;;
37091;SDS011;23005;51.998;4.502;2023-03-31T02:45:40;33.42;;;8.10;;
37091;SDS011;23005;51.998;4.502;2023-03-31T02:47:05;31.58;;;7.80;;
37091;SDS011;23005;51.998;4.502;2023-03-31T02:48:28;31.42;;;7.55;;
37091;SDS011;23005;51.998;4.502;2023-03-31T02:49:51;24.60;;;7.45;;
37091;SDS011;23005;51.998;4.502;2023-03-31T02:51:34;40.00;;;7.97;;
37091;SDS011;23005;51.998;4.502;2023-03-31T02:54:31;33.72;;;5.82;;
37091;SDS011;23005;51.998;4.502;2023-03-31T02:56:05;34.42;;;6.10;;
37091;SDS011;23005;51.998;4.502;2023-03-31T02:57:39;30.80;;;6.32;;
37091;SDS011;23005;51.998;4.502;2023-03-31T02:59:21;41.08;;;7.20;;
37091;SDS011;23005;51.998;4.502;2023-03-31T03:00:52;26.25;;;5.45;;
37091;SDS011;23005;51.998;4.502;2023-03-31T03:02:22;29.15;;;6.03;;
37091;SDS011;23005;51.998;4.502;2023-03-31T03:03:54;25.80;;;5.40;;
37091;SDS011;23005;51.998;4.502;2023-03-31T03:05:24;18.23;;;3.92;;
37091;SDS011;23005;51.998;4.502;2023-03-31T03:06:50;21.77;;;5.00;;
37091;SDS011;23005;51.998;4.502;2023-03-31T03:08:16;24.33;;;4.95;;
37091;SDS011;23005;51.998;4.502;2023-03-31T03:09:43;22.23;;;3.80;;
37091;SDS011;23005;51.998;4.502;2023-03-31T03:11:06;15.82;;;3.33;;
37091;SDS011;23005;51.998;4.502;2023-03-31T03:12:32;23.75;;;4.45;;
37091;SDS011;23005;51.998;4.502;2023-03-31T03:13:58;17.75;;;2.60;;
37091;SDS011;23005;51.998;4.502;2023-03-31T03:15:24;19.58;;;3.20;;
37091;SDS011;23005;51.998;4.502;2023-03-31T03:16:50;19.63;;;3.40;;
37091;SDS011;23005;51.998;4.502;2023-03-31T03:18:17;14.07;;;3.08;;
37091;SDS011;23005;51.998;4.502;2023-03-31T03:19:37;14.32;;;2.88;;
37091;SDS011;23005;51.998;4.502;2023-03-31T03:20:57;14.82;;;2.50;;
37091;SDS011;23005;51.998;4.502;2023-03-31T03:22:18;13.27;;;2.38;;
37091;SDS011;23005;51.998;4.502;2023-03-31T03:23:38;12.90;;;2.22;;
37091;SDS011;23005;51.998;4.502;2023-03-31T03:24:59;12.30;;;2.50;;
37091;SDS011;23005;51.998;4.502;2023-03-31T03:26:20;9.80;;;2.40;;
37091;SDS011;23005;51.998;4.502;2023-03-31T03:27:40;16.75;;;2.70;;
37091;SDS011;23005;51.998;4.502;2023-03-31T03:29:02;20.85;;;3.25;;
37091;SDS011;23005;51.998;4.502;2023-03-31T03:30:23;18.77;;;3.05;;
37091;SDS011;23005;51.998;4.502;2023-03-31T03:31:44;22.48;;;3.20;;
37091;SDS011;23005;51.998;4.502;2023-03-31T03:33:04;15.80;;;3.05;;
37091;SDS011;23005;51.998;4.502;2023-03-31T03:34:24;20.20;;;3.03;;
37091;SDS011;23005;51.998;4.502;2023-03-31T03:35:45;18.60;;;3.07;;
37091;SDS011;23005;51.998;4.502;2023-03-31T03:37:06;14.50;;;3.33;;
37091;SDS011;23005;51.998;4.502;2023-03-31T03:38:26;16.98;;;3.38;;
37091;SDS011;23005;51.998;4.502;2023-03-31T03:39:47;20.60;;;3.88;;
37091;SDS011;23005;51.998;4.502;2023-03-31T03:41:08;15.80;;;3.55;;
37091;SDS011;23005;51.998;4.502;2023-03-31T03:42:29;22.15;;;3.95;;
37091;SDS011;23005;51.998;4.502;2023-03-31T03:43:50;24.40;;;4.43;;
37091;SDS011;23005;51.998;4.502;2023-03-31T03:45:12;25.85;;;4.57;;
37091;SDS011;23005;51.998;4.502;2023-03-31T03:46:32;22.35;;;4.15;;
37091;SDS011;23005;51.998;4.502;2023-03-31T03:47:56;27.83;;;5.80;;
37091;SDS011;23005;51.998;4.502;2023-03-31T03:49:17;24.48;;;5.15;;
37091;SDS011;23005;51.998;4.502;2023-03-31T03:50:37;30.65;;;5.43;;
37091;SDS011;23005;51.998;4.502;2023-03-31T03:51:58;22.77;;;5.57;;
37091;SDS011;23005;51.998;4.502;2023-03-31T03:53:19;21.48;;;5.47;;
37091;SDS011;23005;51.998;4.502;2023-03-31T03:54:40;27.35;;;6.95;;
37091;SDS011;23005;51.998;4.502;2023-03-31T03:56:01;37.83;;;6.95;;
37091;SDS011;23005;51.998;4.502;2023-03-31T03:57:22;30.63;;;7.68;;
37091;SDS011;23005;51.998;4.502;2023-03-31T03:58:42;26.08;;;7.22;;
37091;SDS011;23005;51.998;4.502;2023-03-31T04:00:03;21.23;;;6.10;;
37091;SDS011;23005;51.998;4.502;2023-03-31T04:01:26;34.47;;;7.30;;
37091;SDS011;23005;51.998;4.502;2023-03-31T04:02:47;32.58;;;7.32;;
37091;SDS011;23005;51.998;4.502;2023-03-31T04:04:07;31.73;;;7.60;;
37091;SDS011;23005;51.998;4.502;2023-03-31T04:05:28;26.90;;;7.90;;
37091;SDS011;23005;51.998;4.502;2023-03-31T04:06:48;36.97;;;7.85;;
37091;SDS011;23005;51.998;4.502;2023-03-31T04:08:09;28.38;;;7.82;;
37091;SDS011;23005;51.998;4.502;2023-03-31T04:09:30;34.58;;;8.18;;
37091;SDS011;23005;51.998;4.502;2023-03-31T04:10:51;32.17;;;8.60;;
37091;SDS011;23005;51.998;4.502;2023-03-31T04:12:11;31.93;;;8.80;;
37091;SDS011;23005;51.998;4.502;2023-03-31T04:13:32;40.22;;;9.80;;
37091;SDS011;23005;51.998;4.502;2023-03-31T04:14:52;32.20;;;9.55;;
37091;SDS011;23005;51.998;4.502;2023-03-31T04:16:12;26.90;;;8.35;;
37091;SDS011;23005;51.998;4.502;2023-03-31T04:17:35;28.15;;;7.93;;
37091;SDS011;23005;51.998;4.502;2023-03-31T04:18:55;35.92;;;9.75;;
37091;SDS011;23005;51.998;4.502;2023-03-31T04:20:16;35.30;;;8.23;;
37091;SDS011;23005;51.998;4.502;2023-03-31T04:21:37;39.53;;;9.32;;
37091;SDS011;23005;51.998;4.502;2023-03-31T04:22:58;32.95;;;7.25;;
37091;SDS011;23005;51.998;4.502;2023-03-31T04:24:19;31.00;;;8.05;;
37091;SDS011;23005;51.998;4.502;2023-03-31T04:27:01;38.40;;;8.82;;
37091;SDS011;23005;51.998;4.502;2023-03-31T04:28:22;36.55;;;9.25;;
37091;SDS011;23005;51.998;4.502;2023-03-31T04:29:43;29.65;;;8.10;;
37091;SDS011;23005;51.998;4.502;2023-03-31T04:31:03;33.63;;;7.85;;
37091;SDS011;23005;51.998;4.502;2023-03-31T04:32:24;36.25;;;8.43;;
37091;SDS011;23005;51.998;4.502;2023-03-31T04:33:46;30.80;;;7.72;;
37091;SDS011;23005;51.998;4.502;2023-03-31T04:36:27;28.42;;;7.05;;
37091;SDS011;23005;51.998;4.502;2023-03-31T04:37:48;31.20;;;7.82;;
37091;SDS011;23005;51.998;4.502;2023-03-31T04:39:09;25.77;;;7.70;;
37091;SDS011;23005;51.998;4.502;2023-03-31T04:40:30;28.88;;;6.85;;
37091;SDS011;23005;51.998;4.502;2023-03-31T04:41:51;31.73;;;6.75;;
37091;SDS011;23005;51.998;4.502;2023-03-31T04:43:11;36.85;;;7.90;;
37091;SDS011;23005;51.998;4.502;2023-03-31T04:44:32;32.08;;;8.75;;
37091;SDS011;23005;51.998;4.502;2023-03-31T04:45:55;27.17;;;5.67;;
37091;SDS011;23005;51.998;4.502;2023-03-31T04:47:16;24.00;;;6.13;;
37091;SDS011;23005;51.998;4.502;2023-03-31T04:48:37;26.70;;;6.35;;
37091;SDS011;23005;51.998;4.502;2023-03-31T04:49:59;25.95;;;7.07;;
37091;SDS011;23005;51.998;4.502;2023-03-31T04:51:19;32.05;;;7.38;;
37091;SDS011;23005;51.998;4.502;2023-03-31T04:52:43;22.90;;;6.05;;
37091;SDS011;23005;51.998;4.502;2023-03-31T04:55:24;32.42;;;6.63;;
37091;SDS011;23005;51.998;4.502;2023-03-31T04:56:44;28.40;;;6.13;;
37091;SDS011;23005;51.998;4.502;2023-03-31T04:58:05;29.75;;;6.55;;
37091;SDS011;23005;51.998;4.502;2023-03-31T04:59:25;26.33;;;6.57;;
37091;SDS011;23005;51.998;4.502;2023-03-31T05:00:46;26.90;;;6.47;;
37091;SDS011;23005;51.998;4.502;2023-03-31T05:02:07;31.60;;;5.90;;
37091;SDS011;23005;51.998;4.502;2023-03-31T05:03:28;19.73;;;5.28;;
37091;SDS011;23005;51.998;4.502;2023-03-31T05:04:49;24.23;;;5.18;;
37091;SDS011;23005;51.998;4.502;2023-03-31T05:06:11;22.33;;;5.30;;
37091;SDS011;23005;51.998;4.502;2023-03-31T05:07:31;20.95;;;5.30;;
37091;SDS011;23005;51.998;4.502;2023-03-31T05:08:52;22.27;;;5.10;;
37091;SDS011;23005;51.998;4.502;2023-03-31T05:10:12;24.15;;;4.82;;
37091;SDS011;23005;51.998;4.502;2023-03-31T05:11:33;21.25;;;5.13;;
37091;SDS011;23005;51.998;4.502;2023-03-31T05:12:53;19.30;;;4.65;;
37091;SDS011;23005;51.998;4.502;2023-03-31T05:14:14;23.52;;;4.78;;
37091;SDS011;23005;51.998;4.502;2023-03-31T05:15:36;21.15;;;4.72;;
37091;SDS011;23005;51.998;4.502;2023-03-31T05:16:57;18.20;;;5.20;;
37091;SDS011;23005;51.998;4.502;2023-03-31T05:18:18;22.08;;;4.90;;
37091;SDS011;23005;51.998;4.502;2023-03-31T05:19:39;21.02;;;4.30;;
37091;SDS011;23005;51.998;4.502;2023-03-31T05:21:07;18.50;;;4.85;;
37091;SDS011;23005;51.998;4.502;2023-03-31T05:22:29;16.27;;;4.78;;
37091;SDS011;23005;51.998;4.502;2023-03-31T05:23:53;19.88;;;4.82;;
37091;SDS011;23005;51.998;4.502;2023-03-31T05:25:14;14.40;;;3.77;;
37091;SDS011;23005;51.998;4.502;2023-03-31T05:26:34;11.63;;;3.70;;
37091;SDS011;23005;51.998;4.502;2023-03-31T05:27:54;13.00;;;3.25;;
37091;SDS011;23005;51.998;4.502;2023-03-31T05:29:15;16.88;;;4.75;;
37091;SDS011;23005;51.998;4.502;2023-03-31T05:30:36;17.27;;;3.72;;
37091;SDS011;23005;51.998;4.502;2023-03-31T05:31:56;13.00;;;3.28;;
37091;SDS011;23005;51.998;4.502;2023-03-31T05:33:17;11.98;;;3.08;;
37091;SDS011;23005;51.998;4.502;2023-03-31T05:34:38;14.77;;;3.88;;
37091;SDS011;23005;51.998;4.502;2023-03-31T05:35:58;21.67;;;4.93;;
37091;SDS011;23005;51.998;4.502;2023-03-31T05:37:19;13.77;;;3.55;;
37091;SDS011;23005;51.998;4.502;2023-03-31T05:38:41;7.40;;;2.85;;
37091;SDS011;23005;51.998;4.502;2023-03-31T05:40:02;14.95;;;3.88;;
37091;SDS011;23005;51.998;4.502;2023-03-31T05:41:23;11.57;;;3.22;;
37091;SDS011;23005;51.998;4.502;2023-03-31T05:42:44;10.85;;;3.08;;
37091;SDS011;23005;51.998;4.502;2023-03-31T05:44:04;13.93;;;2.78;;
37091;SDS011;23005;51.998;4.502;2023-03-31T05:45:25;9.00;;;2.55;;
37091;SDS011;23005;51.998;4.502;2023-03-31T05:46:46;14.73;;;2.40;;
37091;SDS011;23005;51.998;4.502;2023-03-31T05:48:06;12.73;;;3.00;;
37091;SDS011;23005;51.998;4.502;2023-03-31T05:49:27;12.07;;;3.00;;
37091;SDS011;23005;51.998;4.502;2023-03-31T05:50:47;11.80;;;2.93;;
37091;SDS011;23005;51.998;4.502;2023-03-31T05:52:10;11.55;;;2.78;;
37091;SDS011;23005;51.998;4.502;2023-03-31T05:53:30;11.93;;;2.53;;
37091;SDS011;23005;51.998;4.502;2023-03-31T05:54:52;9.30;;;2.17;;
37091;SDS011;23005;51.998;4.502;2023-03-31T05:56:13;11.93;;;2.22;;
37091;SDS011;23005;51.998;4.502;2023-03-31T05:57:33;8.73;;;1.92;;
37091;SDS011;23005;51.998;4.502;2023-03-31T05:58:54;9.45;;;2.58;;
37091;SDS011;23005;51.998;4.502;2023-03-31T06:00:14;9.15;;;2.58;;
37091;SDS011;23005;51.998;4.502;2023-03-31T06:01:35;10.82;;;2.10;;
37091;SDS011;23005;51.998;4.502;2023-03-31T06:02:56;10.45;;;2.33;;
37091;SDS011;23005;51.998;4.502;2023-03-31T06:04:16;11.18;;;2.60;;
37091;SDS011;23005;51.998;4.502;2023-03-31T06:05:37;9.98;;;2.15;;
37091;SDS011;23005;51.998;4.502;2023-03-31T06:06:57;8.00;;;2.35;;
37091;SDS011;23005;51.998;4.502;2023-03-31T06:08:18;6.60;;;2.22;;
37091;SDS011;23005;51.998;4.502;2023-03-31T06:09:39;9.30;;;2.05;;
37091;SDS011;23005;51.998;4.502;2023-03-31T06:11:01;15.38;;;2.38;;
37091;SDS011;23005;51.998;4.502;2023-03-31T06:12:24;7.50;;;2.30;;
37091;SDS011;23005;51.998;4.502;2023-03-31T06:13:44;11.55;;;2.40;;
37091;SDS011;23005;51.998;4.502;2023-03-31T06:15:06;15.80;;;2.65;;
37091;SDS011;23005;51.998;4.502;2023-03-31T06:16:26;13.57;;;2.63;;
37091;SDS011;23005;51.998;4.502;2023-03-31T06:17:47;9.10;;;2.10;;
37091;SDS011;23005;51.998;4.502;2023-03-31T06:19:08;14.60;;;2.67;;
37091;SDS011;23005;51.998;4.502;2023-03-31T06:20:28;16.48;;;2.95;;
37091;SDS011;23005;51.998;4.502;2023-03-31T06:21:49;11.50;;;2.50;;
37091;SDS011;23005;51.998;4.502;2023-03-31T06:23:10;17.98;;;3.03;;
37091;SDS011;23005;51.998;4.502;2023-03-31T06:24:31;8.60;;;2.30;;
37091;SDS011;23005;51.998;4.502;2023-03-31T06:25:51;17.05;;;3.15;;
37091;SDS011;23005;51.998;4.502;2023-03-31T06:27:13;13.98;;;2.80;;
